Time;durP1;ratioP1;P1;durP2;ratioP2;P2;SDS_P1;SDS_P2;PMS_P1;PMS_P2;Temp;Humidity;BMP_temperature;BMP_pressure;BME280_temperature;BME280_humidity;BME280_pressure;Samples;Min_cycle;Max_cycle;Signal;HPM_P1;HPM_P2
2023/03/21 00:00:43;;;;;;;111.87;30.73;;;9.20;99.90;;;;;;5095853;28;20278;-82
2023/03/21 00:03:09;;;;;;;84.80;28.03;;;9.20;99.90;;;;;;5078010;28;20289;-82
2023/03/21 00:05:44;;;;;;;132.10;32.97;;;9.20;99.90;;;;;;5094624;28;20297;-81
2023/03/21 00:08:10;;;;;;;102.47;29.42;;;9.20;99.90;;;;;;5095301;28;20332;-81
2023/03/21 00:10:36;;;;;;;99.03;29.73;;;9.20;99.90;;;;;;5095591;28;20492;-81
2023/03/21 00:13:02;;;;;;;113.13;30.77;;;9.20;99.90;;;;;;5095387;28;20105;-81
2023/03/21 00:15:28;;;;;;;116.73;31.33;;;9.20;99.90;;;;;;5095486;28;20052;-81
2023/03/21 00:18:10;;;;;;;130.97;32.37;;;9.20;99.90;;;;;;5095391;28;20290;-81
2023/03/21 00:20:36;;;;;;;95.03;29.37;;;9.20;99.90;;;;;;5095282;28;20290;-81
2023/03/21 00:23:03;;;;;;;117.87;31.03;;;9.20;99.90;;;;;;5093701;28;20738;-82
2023/03/21 00:25:30;;;;;;;92.23;30.13;;;9.20;99.90;;;;;;5077168;28;20293;-81
2023/03/21 00:27:56;;;;;;;91.30;28.90;;;9.20;99.90;;;;;;5060925;28;20347;-82
2023/03/21 00:30:22;;;;;;;91.97;28.17;;;9.20;99.90;;;;;;5093990;28;20381;-82
2023/03/21 00:32:48;;;;;;;94.23;30.23;;;9.20;99.90;;;;;;5077473;28;20056;-82
2023/03/21 00:35:15;;;;;;;69.60;26.20;;;9.20;99.90;;;;;;5095162;28;20301;-82
2023/03/21 00:37:41;;;;;;;73.40;25.63;;;9.20;99.90;;;;;;5095086;28;20318;-82
2023/03/21 00:40:09;;;;;;;57.07;23.83;;;9.20;99.90;;;;;;5094837;28;20278;-82
2023/03/21 00:42:35;;;;;;;43.33;20.77;;;9.20;99.90;;;;;;5094269;28;20286;-82
2023/03/21 00:45:03;;;;;;;50.00;21.33;;;9.20;99.90;;;;;;5094550;28;20622;-81
2023/03/21 00:47:28;;;;;;;59.97;23.60;;;9.20;99.90;;;;;;5094813;28;20282;-81
2023/03/21 00:49:54;;;;;;;58.67;24.57;;;9.20;99.90;;;;;;5093709;28;20324;-82
2023/03/21 00:52:21;;;;;;;58.17;22.83;;;9.20;99.90;;;;;;5093919;28;20048;-81
2023/03/21 00:54:47;;;;;;;52.53;22.00;;;9.20;99.90;;;;;;5094725;28;20290;-82
2023/03/21 00:57:13;;;;;;;47.10;21.00;;;9.20;99.90;;;;;;5094715;28;20270;-81
2023/03/21 00:59:38;;;;;;;67.07;24.63;;;9.20;99.90;;;;;;5094124;28;20476;-82
2023/03/21 01:02:06;;;;;;;68.03;24.97;;;9.20;99.90;;;;;;5094619;28;20052;-82
2023/03/21 01:04:33;;;;;;;67.80;26.47;;;9.20;99.90;;;;;;5094555;28;20097;-83
2023/03/21 01:06:59;;;;;;;72.90;26.70;;;9.20;99.90;;;;;;5094812;28;20675;-82
2023/03/21 01:09:25;;;;;;;68.87;26.50;;;9.20;99.90;;;;;;5094382;28;20835;-82
2023/03/21 01:11:52;;;;;;;70.93;26.70;;;9.20;99.90;;;;;;5095068;28;20274;-82
2023/03/21 01:14:20;;;;;;;85.10;27.40;;;9.20;99.90;;;;;;5094709;28;20344;-82
2023/03/21 01:16:46;;;;;;;69.47;26.37;;;9.20;99.90;;;;;;5094224;28;20286;-82
2023/03/21 01:19:17;;;;;;;59.80;24.87;;;9.20;99.90;;;;;;5093216;28;20266;-82
2023/03/21 01:21:43;;;;;;;63.77;25.97;;;9.20;99.90;;;;;;5094220;28;20296;-83
2023/03/21 01:24:09;;;;;;;53.13;23.10;;;9.20;99.90;;;;;;5093974;28;20363;-82
2023/03/21 01:26:36;;;;;;;51.50;23.53;;;9.20;99.90;;;;;;5094122;28;20092;-82
2023/03/21 01:29:03;;;;;;;52.17;22.67;;;9.30;99.90;;;;;;5092832;28;20684;-82
2023/03/21 01:31:29;;;;;;;47.30;21.43;;;9.20;99.90;;;;;;5094082;28;20365;-82
2023/03/21 01:33:54;;;;;;;50.03;23.23;;;9.30;99.90;;;;;;5094077;28;20310;-81
2023/03/21 01:36:23;;;;;;;50.80;21.97;;;9.20;99.90;;;;;;5092982;28;20518;-82
2023/03/21 01:38:49;;;;;;;39.47;20.23;;;9.30;99.90;;;;;;5093230;28;20115;-82
2023/03/21 01:41:37;;;;;;;38.30;20.57;;;9.30;99.90;;;;;;5092840;28;20727;-82
2023/03/21 01:44:04;;;;;;;42.67;22.07;;;9.30;99.90;;;;;;5093944;28;20044;-82
2023/03/21 01:46:40;;;;;;;37.80;19.77;;;9.30;99.90;;;;;;5093592;28;20290;-82
2023/03/21 01:49:09;;;;;;;33.77;18.93;;;9.30;99.90;;;;;;5093074;28;20825;-83
2023/03/21 01:51:39;;;;;;;38.40;19.57;;;9.30;99.90;;;;;;5093867;28;20335;-82
2023/03/21 01:54:11;;;;;;;38.67;19.40;;;9.30;99.90;;;;;;5094423;28;20274;-82
2023/03/21 01:56:38;;;;;;;35.23;18.93;;;9.30;99.90;;;;;;5093826;28;20904;-82
2023/03/21 01:59:08;;;;;;;30.23;17.80;;;9.30;99.90;;;;;;5093878;28;20734;-82
2023/03/21 02:01:37;;;;;;;30.90;17.97;;;9.30;99.90;;;;;;5092372;28;20298;-82
2023/03/21 02:04:03;;;;;;;30.67;18.57;;;9.30;99.90;;;;;;5093811;28;20281;-82
2023/03/21 02:06:32;;;;;;;26.87;16.53;;;9.30;99.90;;;;;;5092955;28;20651;-83
2023/03/21 02:09:03;;;;;;;27.47;16.37;;;9.30;99.90;;;;;;5094386;28;20663;-82
2023/03/21 02:11:31;;;;;;;29.83;16.37;;;9.30;99.90;;;;;;5092902;28;20286;-82
2023/03/21 02:13:57;;;;;;;25.50;16.17;;;9.30;99.90;;;;;;5092167;28;20370;-82
2023/03/21 02:16:40;;;;;;;23.97;14.90;;;9.30;99.90;;;;;;5093708;28;20274;-82
2023/03/21 02:19:21;;;;;;;21.50;14.20;;;9.30;99.90;;;;;;5093508;28;20294;-82
2023/03/21 02:22:14;;;;;;;21.33;14.87;;;9.30;99.90;;;;;;5092321;28;20373;-82
2023/03/21 02:25:05;;;;;;;19.53;13.70;;;9.30;99.90;;;;;;5094350;28;20294;-82
2023/03/21 02:27:39;;;;;;;19.13;13.37;;;9.30;99.90;;;;;;5094193;28;20278;-82
2023/03/21 02:30:33;;;;;;;20.02;13.27;;;9.30;99.90;;;;;;5093525;28;20298;-82
2023/03/21 02:33:20;;;;;;;21.93;14.07;;;9.30;99.90;;;;;;5092828;28;20488;-83
2023/03/21 02:36:07;;;;;;;22.50;14.40;;;9.40;99.90;;;;;;5093509;28;20322;-83
2023/03/21 02:38:53;;;;;;;21.93;15.53;;;9.30;99.90;;;;;;5092485;28;20332;-84
2023/03/21 02:41:28;;;;;;;19.65;13.73;;;9.30;99.90;;;;;;5093512;28;20347;-84
2023/03/21 02:44:03;;;;;;;23.45;16.05;;;9.30;99.90;;;;;;5093454;28;20056;-84
2023/03/21 02:46:57;;;;;;;19.85;14.73;;;9.30;99.90;;;;;;5092572;28;20047;-84
2023/03/21 02:49:41;;;;;;;23.67;16.43;;;9.30;99.90;;;;;;5090149;28;20048;-84
2023/03/21 02:52:11;;;;;;;23.57;16.40;;;9.30;99.90;;;;;;5096228;28;20754;-84
2023/03/21 02:54:38;;;;;;;27.23;17.53;;;9.30;99.90;;;;;;5096353;28;20282;-83
2023/03/21 02:57:05;;;;;;;28.07;18.00;;;9.30;99.90;;;;;;5097079;28;20309;-83
2023/03/21 02:59:32;;;;;;;28.20;17.97;;;9.30;99.90;;;;;;5097657;28;20274;-83
2023/03/21 03:01:59;;;;;;;25.63;17.73;;;9.30;99.90;;;;;;5079070;28;20287;-84
2023/03/21 03:04:27;;;;;;;31.33;19.53;;;9.30;99.90;;;;;;5096933;28;20323;-84
2023/03/21 03:07:02;;;;;;;31.67;18.40;;;9.30;99.90;;;;;;5096816;28;20680;-84
2023/03/21 03:09:40;;;;;;;31.83;19.97;;;9.30;99.90;;;;;;5096747;28;20302;-83
2023/03/21 03:12:36;;;;;;;32.70;19.60;;;9.40;99.90;;;;;;5095553;28;20282;-84
2023/03/21 03:15:11;;;;;;;;;;;9.30;99.90;;;;;;5097258;28;20353;-84
2023/03/21 03:17:40;;;;;;;31.58;18.92;;;9.30;99.90;;;;;;5095542;28;19920;-83
2023/03/21 03:20:46;;;;;;;28.17;18.87;;;9.30;99.90;;;;;;5096603;28;20040;-84
2023/03/21 03:23:33;;;;;;;;;;;9.30;99.90;;;;;;5097119;28;20286;-84
2023/03/21 03:26:02;;;;;;;29.73;18.83;;;9.30;99.90;;;;;;5096929;28;20419;-83
2023/03/21 03:28:36;;;;;;;31.83;19.70;;;9.30;99.90;;;;;;5096552;28;20499;-83
2023/03/21 03:31:02;;;;;;;31.43;20.27;;;9.40;99.90;;;;;;5096182;28;20385;-84
2023/03/21 03:33:29;;;;;;;28.97;18.23;;;9.40;99.90;;;;;;5096404;28;20727;-84
2023/03/21 03:35:58;;;;;;;26.77;17.37;;;9.30;99.90;;;;;;5095933;28;20619;-84
2023/03/21 03:38:24;;;;;;;34.50;18.73;;;9.30;99.90;;;;;;5096441;28;20286;-83
2023/03/21 03:41:02;;;;;;;29.60;17.70;;;9.30;99.90;;;;;;5095242;28;20290;-83
2023/03/21 03:43:35;;;;;;;28.87;17.03;;;9.30;99.90;;;;;;5096281;28;20274;-84
2023/03/21 03:46:16;;;;;;;31.70;18.13;;;9.40;99.90;;;;;;5097050;28;20278;-83
2023/03/21 03:48:59;;;;;;;37.20;20.20;;;9.40;99.90;;;;;;5095941;28;20277;-83
2023/03/21 03:52:03;;;;;;;33.67;18.97;;;9.40;99.90;;;;;;5096868;28;20297;-84
2023/03/21 03:54:38;;;;;;;37.73;19.27;;;9.30;99.90;;;;;;5072200;28;20369;-83
2023/03/21 03:57:05;;;;;;;;;;;9.30;99.90;;;;;;5096062;28;20278;-83
2023/03/21 03:59:34;;;;;;;32.67;16.97;;;9.30;99.90;;;;;;5094337;28;19955;-83
2023/03/21 04:02:00;;;;;;;41.13;19.13;;;9.30;99.90;;;;;;5095350;28;20365;-84
2023/03/21 04:04:27;;;;;;;32.77;17.93;;;9.30;99.90;;;;;;5096460;28;20369;-82
2023/03/21 04:06:53;;;;;;;34.47;16.17;;;9.30;99.90;;;;;;5094779;28;20085;-83
2023/03/21 04:09:18;;;;;;;50.30;19.40;;;9.30;99.90;;;;;;5095703;28;20302;-83
2023/03/21 04:11:44;;;;;;;48.93;19.30;;;9.30;99.90;;;;;;5095750;28;20044;-83
2023/03/21 04:14:10;;;;;;;42.60;18.37;;;9.40;99.90;;;;;;5094555;28;20437;-83
2023/03/21 04:16:36;;;;;;;41.80;18.23;;;9.30;99.90;;;;;;5095686;28;20040;-82
2023/03/21 04:19:02;;;;;;;44.70;19.03;;;9.40;99.90;;;;;;5077796;28;20365;-83
2023/03/21 04:21:28;;;;;;;43.97;17.97;;;9.40;99.90;;;;;;5095279;28;20052;-83
2023/03/21 04:23:54;;;;;;;44.63;19.10;;;9.30;99.90;;;;;;5095094;28;20891;-83
2023/03/21 04:26:21;;;;;;;40.07;17.90;;;9.30;99.90;;;;;;5095344;28;20282;-83
2023/03/21 04:28:48;;;;;;;42.10;19.93;;;9.40;99.90;;;;;;5095269;28;20367;-82
2023/03/21 04:31:16;;;;;;;38.83;18.53;;;9.30;99.90;;;;;;5094149;28;20270;-83
2023/03/21 04:33:43;;;;;;;47.73;21.20;;;9.40;99.90;;;;;;5095983;28;20331;-82
2023/03/21 04:36:24;;;;;;;41.70;20.00;;;9.40;99.90;;;;;;5077191;28;20312;-83
2023/03/21 04:38:51;;;;;;;43.67;21.30;;;9.40;99.90;;;;;;5094668;28;20811;-83
2023/03/21 04:41:17;;;;;;;31.87;16.73;;;9.40;99.90;;;;;;5094114;28;20282;-82
2023/03/21 04:43:44;;;;;;;44.23;22.40;;;9.40;99.90;;;;;;5095492;28;20282;-82
2023/03/21 04:46:10;;;;;;;41.17;20.43;;;9.40;99.90;;;;;;5095684;28;20278;-82
2023/03/21 04:48:36;;;;;;;41.67;21.20;;;9.40;99.90;;;;;;5094888;28;20278;-83
2023/03/21 04:51:02;;;;;;;36.93;20.40;;;9.40;99.90;;;;;;5095338;28;20304;-82
2023/03/21 04:53:28;;;;;;;41.03;21.27;;;9.40;99.90;;;;;;5094800;28;20356;-82
2023/03/21 04:55:54;;;;;;;38.27;21.47;;;9.40;99.90;;;;;;5093972;28;20044;-81
2023/03/21 04:58:19;;;;;;;35.67;21.17;;;9.40;99.90;;;;;;5094410;28;20044;-82
2023/03/21 05:00:46;;;;;;;37.27;20.90;;;9.40;99.90;;;;;;5094263;28;20396;-82
2023/03/21 05:03:18;;;;;;;35.70;21.13;;;9.40;99.90;;;;;;5094631;28;20373;-81
2023/03/21 05:05:45;;;;;;;31.27;19.80;;;9.40;99.90;;;;;;5095271;28;20274;-81
2023/03/21 05:08:12;;;;;;;36.10;21.30;;;9.40;99.90;;;;;;5094403;28;20678;-82
2023/03/21 05:10:37;;;;;;;34.37;20.87;;;9.40;99.90;;;;;;5093776;28;20298;-81
2023/03/21 05:13:03;;;;;;;34.67;20.93;;;9.40;99.90;;;;;;5094047;28;20633;-81
2023/03/21 05:15:29;;;;;;;37.23;22.17;;;9.40;99.90;;;;;;5094358;28;20048;-81
2023/03/21 05:17:57;;;;;;;32.93;20.93;;;9.40;99.90;;;;;;5094111;28;20048;-81
2023/03/21 05:20:24;;;;;;;35.67;20.73;;;9.40;99.90;;;;;;5094507;28;20682;-81
2023/03/21 05:22:50;;;;;;;35.37;20.40;;;9.40;99.90;;;;;;5094249;28;20349;-80
2023/03/21 05:25:33;;;;;;;31.90;20.70;;;9.40;99.90;;;;;;5094147;28;20274;-80
2023/03/21 05:28:00;;;;;;;37.33;20.67;;;9.40;99.90;;;;;;5093957;28;20339;-80
2023/03/21 05:30:27;;;;;;;36.00;20.63;;;9.40;99.90;;;;;;5094026;28;20378;-80
2023/03/21 05:32:53;;;;;;;31.97;19.47;;;9.40;99.90;;;;;;5094000;28;20270;-80
2023/03/21 05:35:19;;;;;;;29.23;18.43;;;9.40;99.90;;;;;;5094008;28;20286;-81
2023/03/21 05:37:45;;;;;;;30.43;18.87;;;9.40;99.90;;;;;;5094085;28;20134;-80
2023/03/21 05:40:11;;;;;;;32.70;19.63;;;9.40;99.90;;;;;;5093910;28;20150;-81
2023/03/21 05:42:37;;;;;;;28.10;18.13;;;9.40;99.90;;;;;;5093916;28;20135;-81
2023/03/21 05:45:03;;;;;;;32.17;18.80;;;9.40;99.90;;;;;;5093685;28;20322;-82
2023/03/21 05:47:29;;;;;;;32.67;19.03;;;9.40;99.90;;;;;;5093961;28;20090;-82
2023/03/21 05:49:55;;;;;;;33.50;20.33;;;9.40;99.90;;;;;;5093743;28;20333;-82
2023/03/21 05:52:21;;;;;;;37.67;21.87;;;9.40;99.90;;;;;;5092930;28;20070;-82
2023/03/21 05:54:46;;;;;;;33.37;18.63;;;9.40;99.90;;;;;;5094103;28;20047;-81
2023/03/21 05:57:12;;;;;;;33.13;19.40;;;9.40;99.90;;;;;;5094363;28;20040;-82
2023/03/21 05:59:38;;;;;;;35.47;19.63;;;9.40;99.90;;;;;;5093651;28;20467;-82
2023/03/21 06:02:07;;;;;;;35.03;19.53;;;9.40;99.90;;;;;;5092754;28;20479;-82
2023/03/21 06:04:32;;;;;;;38.00;20.33;;;9.40;99.90;;;;;;5093721;28;20312;-82
2023/03/21 06:06:58;;;;;;;35.60;19.97;;;9.40;99.90;;;;;;5093246;28;20093;-82
2023/03/21 06:09:25;;;;;;;35.30;19.43;;;9.40;99.90;;;;;;5092384;28;20148;-83
2023/03/21 06:11:52;;;;;;;41.80;21.30;;;9.40;99.90;;;;;;5093763;28;20122;-82
2023/03/21 06:14:19;;;;;;;33.70;19.60;;;9.40;99.90;;;;;;5094142;28;20297;-82
2023/03/21 06:16:45;;;;;;;39.27;21.67;;;9.50;99.90;;;;;;5092779;28;20278;-82
2023/03/21 06:19:11;;;;;;;38.73;21.97;;;9.50;99.90;;;;;;5093480;28;20281;-82
2023/03/21 06:21:37;;;;;;;37.93;21.17;;;9.50;99.90;;;;;;5094491;28;20095;-82
2023/03/21 06:24:03;;;;;;;35.57;20.07;;;9.50;99.90;;;;;;5097556;28;20080;-82
2023/03/21 06:26:29;;;;;;;35.77;20.00;;;9.50;99.90;;;;;;5096295;28;20709;-82
2023/03/21 06:28:55;;;;;;;39.20;22.17;;;9.50;99.90;;;;;;5098169;28;20048;-81
2023/03/21 06:31:21;;;;;;;39.53;22.00;;;9.50;99.90;;;;;;5096437;28;20490;-82
2023/03/21 06:33:50;;;;;;;38.60;21.57;;;9.50;99.90;;;;;;5096289;28;20331;-81
2023/03/21 06:36:17;;;;;;;34.67;20.00;;;9.50;99.90;;;;;;5096494;28;20290;-81
2023/03/21 06:38:42;;;;;;;37.00;20.77;;;9.50;99.90;;;;;;5097425;28;20278;-81
2023/03/21 06:41:09;;;;;;;36.97;21.73;;;9.50;99.90;;;;;;5097293;28;20795;-81
2023/03/21 06:43:35;;;;;;;31.97;19.30;;;9.50;99.90;;;;;;5097322;28;20056;-82
2023/03/21 06:46:01;;;;;;;34.23;20.53;;;9.50;99.90;;;;;;5095928;28;20343;-82
2023/03/21 06:48:27;;;;;;;31.13;18.53;;;9.60;99.90;;;;;;5096314;28;20127;-82
2023/03/21 06:50:53;;;;;;;29.10;18.43;;;9.60;99.90;;;;;;5096425;28;20307;-81
2023/03/21 06:53:23;;;;;;;31.13;19.17;;;9.60;99.90;;;;;;5096538;28;20351;-82
2023/03/21 06:55:50;;;;;;;31.27;18.20;;;9.60;99.90;;;;;;5097782;28;20349;-82
2023/03/21 06:58:16;;;;;;;32.33;18.90;;;9.60;99.90;;;;;;5096812;28;20282;-82
2023/03/21 07:00:43;;;;;;;30.87;19.07;;;9.60;99.90;;;;;;5097121;28;20277;-82
2023/03/21 07:03:10;;;;;;;28.23;17.80;;;9.60;99.90;;;;;;5097055;28;20335;-81
2023/03/21 07:05:36;;;;;;;26.60;17.33;;;9.60;99.90;;;;;;5096207;28;20282;-82
2023/03/21 07:08:02;;;;;;;26.93;17.30;;;9.60;99.90;;;;;;5095968;28;20654;-81
2023/03/21 07:10:28;;;;;;;27.77;18.20;;;9.60;99.90;;;;;;5096814;28;20792;-82
2023/03/21 07:12:54;;;;;;;26.60;17.93;;;9.60;99.90;;;;;;5096685;28;20365;-82
2023/03/21 07:15:20;;;;;;;28.53;17.83;;;9.60;99.90;;;;;;5095925;28;20047;-83
2023/03/21 07:17:46;;;;;;;27.73;17.43;;;9.60;99.90;;;;;;5096535;28;20413;-79
2023/03/21 07:20:12;;;;;;;23.57;16.30;;;9.60;99.90;;;;;;5079719;28;20373;-82
2023/03/21 07:22:38;;;;;;;26.37;18.27;;;9.60;99.90;;;;;;5096899;28;20052;-83
2023/03/21 07:25:06;;;;;;;24.47;17.00;;;9.60;99.90;;;;;;5096602;28;20336;-83
2023/03/21 07:27:32;;;;;;;24.63;16.73;;;9.60;99.90;;;;;;5095509;28;20736;-85
2023/03/21 07:29:58;;;;;;;22.07;15.03;;;9.70;99.90;;;;;;5078415;28;20359;-82
2023/03/21 07:32:28;;;;;;;24.00;16.27;;;9.70;99.90;;;;;;5095777;28;20278;-83
2023/03/21 07:34:55;;;;;;;21.50;15.47;;;9.70;99.90;;;;;;5095550;28;20481;-82
2023/03/21 07:37:20;;;;;;;21.83;15.67;;;9.70;99.90;;;;;;5095395;28;20331;-82
2023/03/21 07:39:46;;;;;;;21.80;15.70;;;9.70;99.90;;;;;;5097142;28;20367;-82
2023/03/21 07:42:12;;;;;;;19.67;15.47;;;9.70;99.90;;;;;;5096228;28;20373;-82
2023/03/21 07:44:37;;;;;;;18.47;14.27;;;9.70;99.90;;;;;;5096901;28;20357;-83
2023/03/21 07:47:04;;;;;;;21.00;15.10;;;9.70;99.90;;;;;;5094925;28;20127;-81
2023/03/21 07:49:31;;;;;;;22.10;15.70;;;9.70;99.90;;;;;;5095064;28;20044;-81
2023/03/21 07:51:58;;;;;;;22.00;15.67;;;9.70;99.90;;;;;;5095293;28;20630;-82
2023/03/21 07:54:24;;;;;;;24.17;16.67;;;9.70;99.90;;;;;;5095079;28;20293;-82
2023/03/21 07:56:50;;;;;;;22.40;16.13;;;9.70;99.90;;;;;;5096082;28;20270;-82
2023/03/21 07:59:15;;;;;;;23.60;16.13;;;9.70;99.90;;;;;;5095640;28;20762;-82
2023/03/21 08:01:41;;;;;;;21.27;15.33;;;9.70;99.90;;;;;;5095036;28;20039;-82
2023/03/21 08:04:07;;;;;;;18.47;13.77;;;9.70;99.90;;;;;;5096138;28;20578;-83
2023/03/21 08:06:33;;;;;;;20.43;13.90;;;9.70;99.90;;;;;;5094795;28;20125;-83
2023/03/21 08:08:59;;;;;;;24.27;17.57;;;9.70;99.90;;;;;;5095984;28;20555;-83
2023/03/21 08:11:24;;;;;;;22.93;15.83;;;9.70;99.90;;;;;;5096125;28;20047;-82
2023/03/21 08:13:50;;;;;;;19.73;13.80;;;9.70;99.90;;;;;;5094285;28;20052;-83
2023/03/21 08:16:16;;;;;;;25.03;15.93;;;9.70;99.90;;;;;;5096188;28;20056;-82
2023/03/21 08:18:42;;;;;;;24.67;16.83;;;9.70;99.90;;;;;;5096093;28;20434;-83
2023/03/21 08:21:08;;;;;;;24.43;16.90;;;9.70;99.90;;;;;;5096015;28;20282;-83
2023/03/21 08:23:35;;;;;;;21.07;15.43;;;9.70;99.90;;;;;;5096187;28;20293;-83
2023/03/21 08:26:00;;;;;;;23.87;16.13;;;9.80;99.90;;;;;;5094558;28;20048;-83
2023/03/21 08:28:27;;;;;;;25.00;17.67;;;9.80;99.90;;;;;;5095895;28;20356;-82
2023/03/21 08:30:53;;;;;;;22.77;17.17;;;9.80;99.90;;;;;;5094082;28;20044;-82
2023/03/21 08:33:19;;;;;;;26.30;17.83;;;9.80;99.90;;;;;;5095188;28;20278;-83
2023/03/21 08:35:46;;;;;;;25.17;16.17;;;9.80;99.90;;;;;;5095111;28;20427;-83
2023/03/21 08:38:12;;;;;;;27.27;19.17;;;9.80;99.90;;;;;;5095240;28;20285;-83
2023/03/21 08:40:38;;;;;;;23.80;17.10;;;9.80;99.90;;;;;;5095244;28;20270;-84
2023/03/21 08:43:04;;;;;;;26.10;16.43;;;9.90;99.90;;;;;;5095843;28;20598;-83
2023/03/21 08:45:30;;;;;;;29.13;19.17;;;9.80;99.90;;;;;;5093812;28;20055;-84
2023/03/21 08:47:56;;;;;;;28.17;19.13;;;9.80;99.90;;;;;;5095136;28;20274;-84
2023/03/21 08:50:26;;;;;;;26.50;19.50;;;9.90;99.90;;;;;;5094114;28;20048;-85
2023/03/21 08:52:52;;;;;;;31.63;22.30;;;9.90;99.90;;;;;;5094891;28;20047;-83
2023/03/21 08:55:18;;;;;;;32.50;22.80;;;9.90;99.90;;;;;;5095277;28;20338;-81
2023/03/21 08:57:45;;;;;;;30.30;20.10;;;9.90;99.90;;;;;;5094901;28;20043;-84
2023/03/21 09:00:13;;;;;;;32.73;22.40;;;10.00;99.90;;;;;;5094823;28;20327;-83
2023/03/21 09:02:43;;;;;;;29.53;20.90;;;10.00;99.90;;;;;;5094773;28;20328;-84
2023/03/21 09:05:15;;;;;;;27.87;17.17;;;10.00;99.90;;;;;;5149730;27;1284930;-85
2023/03/21 09:07:42;;;;;;;27.10;19.37;;;10.00;99.90;;;;;;5173155;27;20046;-81
2023/03/21 09:10:11;;;;;;;29.70;19.63;;;10.00;99.90;;;;;;5172980;27;20774;-84
2023/03/21 09:12:37;;;;;;;28.47;21.07;;;10.00;99.90;;;;;;5149018;27;20287;-83
2023/03/21 09:15:04;;;;;;;33.93;21.63;;;10.00;99.90;;;;;;5158673;27;20605;-82
2023/03/21 09:17:33;;;;;;;33.87;23.63;;;10.10;99.90;;;;;;5159336;27;20351;-82
2023/03/21 09:20:00;;;;;;;30.20;21.30;;;10.00;99.90;;;;;;5167345;27;20280;-83
2023/03/21 09:22:26;;;;;;;30.73;21.83;;;10.10;99.90;;;;;;5164561;27;20284;-84
2023/03/21 09:24:53;;;;;;;31.17;22.30;;;10.10;99.90;;;;;;5165792;27;20295;-82
2023/03/21 09:27:21;;;;;;;33.03;22.90;;;10.10;99.90;;;;;;5147505;27;20343;-82
2023/03/21 09:29:50;;;;;;;34.27;23.80;;;10.10;99.90;;;;;;5170974;27;20276;-83
2023/03/21 09:32:20;;;;;;;34.87;24.20;;;10.10;99.90;;;;;;5152923;27;20280;-82
2023/03/21 09:34:47;;;;;;;40.27;25.17;;;10.20;99.90;;;;;;5172279;27;20268;-82
2023/03/21 09:37:13;;;;;;;32.30;24.33;;;10.20;99.90;;;;;;5154089;27;20325;-82
2023/03/21 09:39:40;;;;;;;34.97;24.47;;;10.20;99.90;;;;;;5154279;27;20338;-84
2023/03/21 09:42:26;;;;;;;34.10;22.50;;;10.20;99.90;;;;;;5172872;27;20051;-84
2023/03/21 09:45:27;;;;;;;34.00;22.10;;;10.20;99.90;;;;;;5172580;27;20616;-84
2023/03/21 09:47:55;;;;;;;30.47;21.90;;;10.20;99.90;;;;;;5167454;27;20284;-82
2023/03/21 09:50:35;;;;;;;34.93;20.67;;;10.20;99.90;;;;;;5172083;27;20279;-82
2023/03/21 09:53:11;;;;;;;30.47;18.57;;;10.20;99.90;;;;;;5172316;27;20370;-82
2023/03/21 09:55:39;;;;;;;35.77;21.17;;;10.20;99.90;;;;;;5171989;27;20324;-79
2023/03/21 09:58:45;;;;;;;28.20;19.73;;;10.20;99.90;;;;;;5172392;27;20597;-81
2023/03/21 10:01:26;;;;;;;34.63;20.02;;;10.20;99.90;;;;;;5133146;27;20288;-81
2023/03/21 10:03:55;;;;;;;32.60;19.80;;;10.20;99.90;;;;;;5171768;27;20058;-84
2023/03/21 10:06:29;;;;;;;27.90;18.43;;;10.30;99.90;;;;;;5171587;27;20365;-84
2023/03/21 10:09:21;;;;;;;31.23;20.90;;;10.40;99.90;;;;;;5171252;27;20268;-80
2023/03/21 10:11:52;;;;;;;30.33;19.97;;;10.50;99.90;;;;;;5167660;27;20276;-83
2023/03/21 10:14:27;;;;;;;27.00;18.27;;;10.50;99.90;;;;;;5171670;27;20268;-85
2023/03/21 10:17:01;;;;;;;28.05;17.50;;;10.70;99.90;;;;;;5157317;27;20280;-78
2023/03/21 10:19:27;;;;;;;27.15;17.70;;;10.70;99.90;;;;;;5157513;27;20081;-77
2023/03/21 10:21:53;;;;;;;27.27;17.77;;;10.60;99.90;;;;;;5157697;27;20061;-77
2023/03/21 10:24:23;;;;;;;26.70;16.80;;;10.70;99.90;;;;;;5138615;27;20331;-82
2023/03/21 10:26:51;;;;;;;26.20;16.47;;;10.70;99.90;;;;;;5157708;27;20272;-82
2023/03/21 10:29:21;;;;;;;26.73;15.63;;;10.70;99.90;;;;;;5138757;27;20632;-83
2023/03/21 10:31:48;;;;;;;25.23;15.30;;;10.70;99.90;;;;;;5155736;27;20303;-84
2023/03/21 10:34:31;;;;;;;23.33;15.27;;;10.80;99.90;;;;;;5156625;27;20284;-84
2023/03/21 10:36:59;;;;;;;21.13;14.10;;;10.80;99.90;;;;;;5157809;27;20300;-85
2023/03/21 10:39:38;;;;;;;22.40;14.53;;;10.90;99.90;;;;;;5157539;27;20272;-83
2023/03/21 10:42:04;;;;;;;20.10;13.93;;;10.90;99.90;;;;;;5157743;27;20269;-85
2023/03/21 10:44:32;;;;;;;21.77;14.23;;;11.00;99.90;;;;;;5157067;27;20382;-85
2023/03/21 10:47:08;;;;;;;19.13;13.07;;;11.00;99.90;;;;;;5139343;27;20284;-84
2023/03/21 10:49:38;;;;;;;20.90;13.67;;;11.10;99.90;;;;;;5157189;27;20308;-84
2023/03/21 10:52:07;;;;;;;22.33;13.40;;;11.20;99.90;;;;;;5157422;27;20276;-85
2023/03/21 10:54:37;;;;;;;21.07;12.67;;;11.30;99.90;;;;;;5157211;27;20272;-85
2023/03/21 10:57:13;;;;;;;18.17;11.57;;;11.40;99.90;;;;;;5139255;27;20367;-85
2023/03/21 10:59:58;;;;;;;17.77;11.80;;;11.40;99.90;;;;;;5156687;27;20896;-84
2023/03/21 11:02:29;;;;;;;16.85;11.13;;;11.50;99.90;;;;;;5138634;27;20628;-84
2023/03/21 11:04:57;;;;;;;17.30;10.40;;;11.50;99.90;;;;;;5138467;27;20054;-85
2023/03/21 11:07:29;;;;;;;18.90;11.50;;;11.50;99.90;;;;;;5157237;27;20280;-84
2023/03/21 11:09:59;;;;;;;18.83;12.17;;;11.50;99.90;;;;;;5157395;27;20275;-85
2023/03/21 11:12:33;;;;;;;17.30;11.57;;;11.50;99.90;;;;;;5138289;27;20280;-84
2023/03/21 11:15:28;;;;;;;16.73;10.95;;;11.40;99.90;;;;;;5156826;27;20271;-84
2023/03/21 11:17:54;;;;;;;17.30;11.32;;;11.40;99.90;;;;;;5123537;27;20050;-83
2023/03/21 11:20:21;;;;;;;21.40;11.80;;;11.40;99.90;;;;;;5138264;27;20042;-83
2023/03/21 11:22:48;;;;;;;19.67;12.63;;;11.40;99.90;;;;;;5156132;27;20395;-83
2023/03/21 11:25:37;;;;;;;20.93;12.57;;;11.50;99.90;;;;;;5156766;27;20449;-83
2023/03/21 11:28:13;;;;;;;17.60;11.80;;;11.50;99.90;;;;;;5137465;27;20363;-83
2023/03/21 11:30:50;;;;;;;17.03;10.80;;;11.60;99.90;;;;;;5156146;27;20276;-83
2023/03/21 11:33:18;;;;;;;15.90;10.30;;;11.60;99.90;;;;;;5138492;27;20268;-83
2023/03/21 11:36:16;;;;;;;17.97;10.70;;;11.60;99.90;;;;;;5156094;27;20276;-83
2023/03/21 11:38:42;;;;;;;16.37;9.93;;;11.60;99.90;;;;;;5137765;27;20288;-73
2023/03/21 11:41:20;;;;;;;20.63;11.37;;;11.60;99.90;;;;;;5156265;27;20295;-83
2023/03/21 11:43:51;;;;;;;18.33;11.30;;;11.60;99.90;;;;;;5120431;27;20045;-83
2023/03/21 11:46:22;;;;;;;17.50;11.30;;;11.60;99.90;;;;;;5155817;27;20356;-83
2023/03/21 11:48:48;;;;;;;19.50;10.90;;;11.60;99.90;;;;;;5137401;27;20296;-82
2023/03/21 11:51:28;;;;;;;17.53;10.03;;;11.60;99.90;;;;;;5155776;27;20328;-82
2023/03/21 11:54:32;;;;;;;17.40;10.63;;;11.50;99.90;;;;;;5137712;27;20348;-82
2023/03/21 11:57:30;;;;;;;18.97;11.17;;;11.50;99.90;;;;;;5035095;28;20303;-85
2023/03/21 12:00:12;;;;;;;18.63;10.07;;;11.50;99.90;;;;;;5155966;27;20324;-86
2023/03/21 12:02:56;;;;;;;18.57;11.00;;;11.50;99.90;;;;;;5155549;27;20280;-85
2023/03/21 12:05:33;;;;;;;18.70;10.47;;;11.50;99.90;;;;;;5155765;27;20323;-86
2023/03/21 12:07:59;;;;;;;17.13;11.03;;;11.50;99.90;;;;;;5121684;27;20284;-85
2023/03/21 12:10:28;;;;;;;17.13;9.53;;;11.50;99.90;;;;;;5155895;27;20284;-85
2023/03/21 12:12:54;;;;;;;15.70;10.10;;;11.50;99.90;;;;;;5137192;27;20055;-82
2023/03/21 12:15:36;;;;;;;16.57;9.63;;;11.40;99.90;;;;;;5136906;27;20364;-80
2023/03/21 12:18:39;;;;;;;13.87;9.30;;;11.50;99.90;;;;;;5154895;27;20114;-79
2023/03/21 12:21:25;;;;;;;16.90;9.43;;;11.40;99.90;;;;;;5154403;27;20327;-83
2023/03/21 12:24:12;;;;;;;16.33;10.00;;;11.50;99.90;;;;;;5152615;27;20299;-83
2023/03/21 12:26:44;;;;;;;17.10;9.67;;;11.50;99.90;;;;;;5153438;27;20272;-83
2023/03/21 12:29:35;;;;;;;21.30;9.83;;;11.50;99.90;;;;;;5152352;27;20796;-84
2023/03/21 12:32:36;;;;;;;17.33;9.57;;;11.60;99.90;;;;;;5156066;27;20276;-83
2023/03/21 12:35:21;;;;;;;19.17;10.27;;;11.60;99.90;;;;;;5034796;28;20306;-83
2023/03/21 12:38:31;;;;;;;18.83;10.33;;;11.60;99.90;;;;;;5147593;27;20295;-83
2023/03/21 12:41:37;;;;;;;18.17;10.83;;;11.60;99.90;;;;;;5050973;28;20362;-84
2023/03/21 12:44:15;;;;;;;18.63;9.45;;;11.60;99.90;;;;;;5050972;28;20997;-85
2023/03/21 12:46:52;;;;;;;15.90;10.00;;;11.70;99.90;;;;;;5122377;27;20491;-73
2023/03/21 12:49:48;;;;;;;17.20;10.43;;;11.70;99.90;;;;;;5154856;27;20680;-84
2023/03/21 12:52:21;;;;;;;18.60;10.03;;;11.80;99.90;;;;;;5153476;27;20316;-84
2023/03/21 12:55:11;;;;;;;17.80;11.00;;;11.80;99.90;;;;;;5136663;27;20288;-84